createdAt,value
2022-08-28T00:00:17.738Z,12.40
2022-08-28T00:02:45.672Z,12.05
2022-08-28T00:05:14.610Z,11.77
2022-08-28T00:07:47.014Z,12.35
2022-08-28T00:10:16.893Z,13.23
2022-08-28T00:12:44.870Z,12.75
2022-08-28T00:15:16.835Z,12.75
2022-08-28T00:17:43.574Z,12.10
2022-08-28T00:20:12.501Z,13.10
2022-08-28T00:22:39.728Z,11.90
2022-08-28T00:25:08.481Z,12.65
2022-08-28T00:27:53.768Z,14.13
2022-08-28T00:30:29.526Z,12.57
2022-08-28T00:33:00.052Z,12.32
2022-08-28T00:35:26.838Z,11.63
2022-08-28T00:37:55.037Z,12.30
2022-08-28T00:40:30.494Z,13.48
2022-08-28T00:43:01.699Z,12.25
2022-08-28T00:45:28.938Z,11.68
2022-08-28T00:47:55.606Z,11.43
2022-08-28T00:50:25.679Z,12.13
2022-08-28T00:52:59.097Z,11.10
2022-08-28T00:55:28.336Z,12.73
2022-08-28T00:57:59.073Z,11.90
2022-08-28T01:00:34.205Z,11.80
2022-08-28T01:03:01.392Z,11.73
2022-08-28T01:05:28.851Z,10.82
2022-08-28T01:07:58.745Z,12.27
2022-08-28T01:10:28.662Z,11.35
2022-08-28T01:12:57.333Z,12.63
2022-08-28T01:15:34.350Z,12.52
2022-08-28T01:18:12.242Z,13.88
2022-08-28T01:20:46.903Z,14.20
2022-08-28T01:23:38.470Z,12.75
2022-08-28T01:26:06.564Z,12.15
2022-08-28T01:28:38.689Z,13.52
2022-08-28T01:31:05.431Z,12.88
2022-08-28T01:33:32.128Z,11.55
2022-08-28T01:35:59.307Z,12.20
2022-08-28T01:38:26.962Z,14.43
2022-08-28T01:40:57.231Z,12.45
2022-08-28T01:43:26.569Z,14.27
2022-08-28T01:46:01.903Z,12.88
2022-08-28T01:48:30.186Z,11.55
2022-08-28T01:50:56.776Z,12.30
2022-08-28T01:53:26.397Z,12.05
2022-08-28T01:56:02.045Z,11.82
2022-08-28T01:58:32.966Z,11.70
2022-08-28T02:01:01.748Z,11.23
2022-08-28T02:03:28.355Z,12.82
2022-08-28T02:05:54.950Z,12.73
2022-08-28T02:08:21.525Z,11.95
2022-08-28T02:10:49.146Z,12.15
2022-08-28T02:13:15.766Z,11.80
2022-08-28T02:15:44.600Z,12.30
2022-08-28T02:18:11.959Z,13.50
2022-08-28T02:20:38.809Z,12.93
2022-08-28T02:23:06.194Z,11.43
2022-08-28T02:25:33.058Z,12.93
2022-08-28T02:27:59.778Z,12.40
2022-08-28T02:30:26.726Z,13.43
2022-08-28T02:32:53.695Z,11.88
2022-08-28T02:35:21.731Z,12.95
2022-08-28T02:37:49.458Z,9.43
2022-08-28T02:40:18.832Z,11.98
2022-08-28T02:42:45.500Z,11.15
2022-08-28T02:45:13.478Z,12.77
2022-08-28T02:47:42.061Z,11.82
2022-08-28T02:50:10.792Z,11.32
2022-08-28T02:52:37.508Z,11.48
2022-08-28T02:55:08.828Z,12.57
2022-08-28T02:57:35.436Z,10.60
2022-08-28T03:00:04.660Z,12.07
2022-08-28T03:02:31.884Z,11.15
2022-08-28T03:05:00.445Z,11.98
2022-08-28T03:07:29.348Z,11.30
2022-08-28T03:09:56.093Z,10.98
2022-08-28T03:12:25.522Z,12.10
2022-08-28T03:14:53.893Z,11.02
2022-08-28T03:17:21.357Z,11.05
2022-08-28T03:19:50.074Z,11.43
2022-08-28T03:22:18.475Z,9.60
2022-08-28T03:24:45.393Z,10.40
2022-08-28T03:27:12.125Z,9.75
2022-08-28T03:29:39.008Z,11.25
2022-08-28T03:32:05.668Z,8.88
2022-08-28T03:34:33.540Z,10.85
2022-08-28T03:37:01.223Z,10.50
2022-08-28T03:39:28.052Z,10.95
2022-08-28T03:41:54.982Z,10.73
2022-08-28T03:44:21.738Z,10.93
2022-08-28T03:46:48.359Z,10.80
2022-08-28T03:49:15.690Z,11.25
2022-08-28T03:51:43.150Z,9.93
2022-08-28T03:54:09.757Z,9.25
2022-08-28T03:56:36.353Z,9.30
2022-08-28T03:59:05.195Z,10.13
2022-08-28T04:01:33.554Z,8.90
2022-08-28T04:04:00.481Z,8.38
2022-08-28T04:06:28.034Z,8.90
2022-08-28T04:08:54.763Z,9.93
2022-08-28T04:11:26.982Z,9.18
2022-08-28T04:13:53.556Z,9.23
2022-08-28T04:16:20.287Z,9.63
2022-08-28T04:18:49.494Z,8.27
2022-08-28T04:21:20.181Z,8.93
2022-08-28T04:23:47.511Z,9.13
2022-08-28T04:26:22.646Z,7.80
2022-08-28T04:28:49.532Z,8.98
2022-08-28T04:31:19.690Z,9.80
2022-08-28T04:34:01.282Z,8.65
2022-08-28T04:36:28.267Z,8.48
2022-08-28T04:38:55.531Z,8.48
2022-08-28T04:41:23.011Z,8.65
2022-08-28T04:43:51.016Z,8.13
2022-08-28T04:46:17.644Z,10.63
2022-08-28T04:48:44.869Z,9.27
2022-08-28T04:51:14.955Z,10.07
2022-08-28T04:53:42.014Z,8.10
2022-08-28T04:56:12.208Z,8.38
2022-08-28T04:58:40.526Z,8.57
2022-08-28T05:01:19.503Z,9.75
2022-08-28T05:03:47.927Z,8.00
2022-08-28T05:06:16.081Z,10.88
2022-08-28T05:08:43.086Z,9.00
2022-08-28T05:11:32.728Z,10.02
2022-08-28T05:14:01.185Z,7.93
2022-08-28T05:16:27.869Z,10.35
2022-08-28T05:18:54.498Z,9.18
2022-08-28T05:21:23.295Z,9.50
2022-08-28T05:23:53.771Z,9.10
2022-08-28T05:26:20.826Z,9.15
2022-08-28T05:28:48.437Z,8.50
2022-08-28T05:31:21.631Z,10.55
2022-08-28T05:33:49.797Z,8.73
2022-08-28T05:36:17.660Z,9.38
2022-08-28T05:38:44.387Z,7.85
2022-08-28T05:41:11.980Z,8.68
2022-08-28T05:43:39.680Z,8.80
2022-08-28T05:46:10.510Z,8.00
2022-08-28T05:48:39.407Z,9.13
2022-08-28T05:51:08.700Z,8.45
2022-08-28T05:53:41.037Z,10.02
2022-08-28T05:56:09.573Z,10.05
2022-08-28T05:58:37.697Z,8.77
2022-08-28T06:01:17.905Z,9.07
2022-08-28T06:03:50.820Z,10.35
2022-08-28T06:06:17.467Z,9.85
2022-08-28T06:08:58.150Z,10.45
2022-08-28T06:11:27.154Z,10.13
2022-08-28T06:14:01.739Z,11.10
2022-08-28T06:16:31.624Z,9.57
2022-08-28T06:18:58.677Z,9.35
2022-08-28T06:21:25.315Z,10.10
2022-08-28T06:23:51.944Z,12.13
2022-08-28T06:26:18.680Z,9.07
2022-08-28T06:28:45.342Z,10.32
2022-08-28T06:31:24.426Z,8.05
2022-08-28T06:33:57.270Z,11.00
2022-08-28T06:36:27.284Z,11.52
2022-08-28T06:38:55.569Z,9.93
2022-08-28T06:41:22.222Z,9.70
2022-08-28T06:43:48.837Z,9.82
2022-08-28T06:46:15.711Z,9.85
2022-08-28T06:48:42.610Z,10.55
2022-08-28T06:51:11.554Z,9.27
2022-08-28T06:53:39.923Z,11.10
2022-08-28T06:56:25.434Z,10.93
2022-08-28T06:58:55.715Z,11.00
2022-08-28T07:01:29.213Z,10.15
2022-08-28T07:03:59.583Z,9.70
2022-08-28T07:06:26.969Z,9.07
2022-08-28T07:08:53.669Z,10.57
2022-08-28T07:11:26.902Z,9.60
2022-08-28T07:13:55.318Z,9.48
2022-08-28T07:16:25.075Z,12.05
2022-08-28T07:18:51.949Z,11.18
2022-08-28T07:21:19.349Z,10.98
2022-08-28T07:23:46.499Z,9.90
2022-08-28T07:26:16.569Z,9.13
2022-08-28T07:28:43.400Z,11.02
2022-08-28T07:31:15.348Z,10.90
2022-08-28T07:33:42.602Z,10.18
2022-08-28T07:36:29.189Z,9.40
2022-08-28T07:38:58.866Z,9.57
2022-08-28T07:41:32.017Z,10.15
2022-08-28T07:44:17.201Z,10.40
2022-08-28T07:46:44.557Z,7.55
2022-08-28T07:49:13.251Z,7.57
2022-08-28T07:51:39.916Z,8.25
2022-08-28T07:54:06.915Z,8.00
2022-08-28T07:56:42.299Z,6.90
2022-08-28T07:59:11.428Z,4.85
2022-08-28T08:01:43.696Z,5.18
2022-08-28T08:04:16.198Z,4.50
2022-08-28T08:06:43.581Z,4.55
2022-08-28T08:09:13.338Z,4.20
2022-08-28T08:11:40.204Z,4.82
2022-08-28T08:14:07.437Z,4.68
2022-08-28T08:16:38.632Z,4.70
2022-08-28T08:19:05.938Z,4.00
2022-08-28T08:21:32.722Z,3.47
2022-08-28T08:23:59.474Z,3.45
2022-08-28T08:26:30.349Z,3.65
2022-08-28T08:28:57.010Z,4.20
2022-08-28T08:31:32.732Z,3.58
2022-08-28T08:34:02.459Z,3.63
2022-08-28T08:36:30.772Z,4.97
2022-08-28T08:39:00.352Z,4.03
2022-08-28T08:41:47.768Z,3.83
2022-08-28T08:44:41.247Z,5.32
2022-08-28T08:47:32.537Z,4.70
2022-08-28T08:50:13.342Z,4.35
2022-08-28T08:52:45.708Z,5.18
2022-08-28T08:55:21.490Z,3.70
2022-08-28T08:57:54.321Z,5.55
2022-08-28T09:00:21.373Z,4.55
2022-08-28T09:03:00.544Z,4.85
2022-08-28T09:05:53.310Z,3.90
2022-08-28T09:08:34.095Z,4.30
2022-08-28T09:11:16.436Z,5.13
2022-08-28T09:14:08.411Z,5.13
2022-08-28T09:16:44.444Z,4.40
2022-08-28T09:19:16.379Z,6.85
2022-08-28T09:21:45.225Z,4.53
2022-08-28T09:24:28.486Z,5.10
2022-08-28T09:27:00.586Z,4.95
2022-08-28T09:29:56.343Z,5.18
2022-08-28T09:32:31.791Z,5.38
2022-08-28T09:35:08.025Z,4.75
2022-08-28T09:37:36.974Z,4.85
2022-08-28T09:40:48.312Z,4.72
2022-08-28T09:43:28.127Z,4.72
2022-08-28T09:46:00.082Z,4.60
2022-08-28T09:48:37.178Z,4.03
2022-08-28T09:51:39.387Z,3.97
2022-08-28T09:54:34.630Z,6.55
2022-08-28T09:57:03.543Z,5.50
2022-08-28T09:59:32.578Z,4.38
2022-08-28T10:02:17.119Z,4.43
2022-08-28T10:04:52.046Z,5.18
2022-08-28T10:07:33.758Z,3.78
2022-08-28T10:10:31.765Z,4.80
2022-08-28T10:13:34.524Z,3.88
2022-08-28T10:16:16.145Z,4.68
2022-08-28T10:19:00.682Z,4.95
2022-08-28T10:21:37.142Z,4.28
2022-08-28T10:24:27.139Z,5.53
2022-08-28T10:27:09.282Z,6.05
2022-08-28T10:29:41.583Z,7.45
2022-08-28T10:32:35.592Z,6.88
2022-08-28T10:35:21.070Z,7.13
2022-08-28T10:38:11.702Z,7.18
2022-08-28T10:41:04.485Z,7.28
2022-08-28T10:43:52.393Z,7.97
2022-08-28T10:46:49.020Z,8.43
2022-08-28T10:49:19.353Z,7.65
2022-08-28T10:51:50.031Z,7.70
2022-08-28T10:54:24.068Z,7.03
2022-08-28T10:57:01.216Z,7.53
2022-08-28T10:59:30.595Z,7.93
2022-08-28T11:01:58.309Z,7.35
2022-08-28T11:04:26.184Z,7.22
2022-08-28T11:06:55.355Z,6.13
2022-08-28T11:09:35.026Z,5.95
2022-08-28T11:12:22.455Z,6.43
2022-08-28T11:14:53.539Z,6.47
2022-08-28T11:17:25.480Z,6.65
2022-08-28T11:20:15.674Z,7.80
2022-08-28T11:23:08.310Z,7.07
2022-08-28T11:25:47.626Z,5.20
2022-08-28T11:28:29.271Z,6.25
2022-08-28T11:31:28.710Z,6.32
2022-08-28T11:34:00.144Z,6.57
2022-08-28T11:36:28.976Z,5.45
2022-08-28T11:38:57.566Z,6.05
2022-08-28T11:41:37.013Z,5.40
2022-08-28T11:44:09.722Z,5.03
2022-08-28T11:46:45.771Z,5.53
2022-08-28T11:49:27.194Z,6.28
2022-08-28T11:52:41.175Z,5.20
2022-08-28T11:55:42.576Z,6.15
2022-08-28T11:58:34.856Z,5.68
2022-08-28T12:01:09.011Z,5.97
2022-08-28T12:03:53.716Z,5.53
2022-08-28T12:06:40.195Z,5.22
2022-08-28T12:09:09.141Z,5.40
2022-08-28T12:11:41.894Z,5.10
2022-08-28T12:14:40.852Z,6.05
2022-08-28T12:17:09.525Z,5.88
2022-08-28T12:19:42.999Z,5.25
2022-08-28T12:22:26.882Z,4.80
2022-08-28T12:25:04.726Z,4.72
2022-08-28T12:27:31.900Z,6.25
2022-08-28T12:30:01.928Z,5.07
2022-08-28T12:32:47.011Z,5.57
2022-08-28T12:37:53.864Z,4.70
2022-08-28T12:40:53.470Z,5.28
2022-08-28T12:43:41.743Z,5.03
2022-08-28T12:46:37.426Z,5.43
2022-08-28T12:49:25.202Z,6.03
2022-08-28T12:52:06.177Z,5.78
2022-08-28T12:54:32.805Z,4.97
2022-08-28T12:56:59.416Z,5.63
2022-08-28T12:59:37.839Z,7.03
2022-08-28T13:02:20.714Z,6.38
2022-08-28T13:04:58.432Z,6.43
2022-08-28T13:07:31.579Z,6.07
2022-08-28T13:10:03.617Z,5.25
2022-08-28T13:12:54.671Z,6.57
2022-08-28T13:15:56.490Z,5.47
2022-08-28T13:18:46.078Z,5.65
2022-08-28T13:21:32.896Z,5.35
2022-08-28T13:24:22.931Z,4.20
2022-08-28T13:26:59.879Z,4.90
2022-08-28T13:29:26.723Z,4.40
2022-08-28T13:32:02.533Z,5.72
2022-08-28T13:34:32.138Z,5.05
2022-08-28T13:37:07.214Z,5.75
2022-08-28T13:39:41.640Z,6.07
2022-08-28T13:42:11.563Z,5.05
2022-08-28T13:44:56.098Z,5.97
2022-08-28T13:47:22.732Z,5.53
2022-08-28T13:49:49.302Z,6.13
2022-08-28T13:52:16.021Z,6.90
2022-08-28T13:54:43.812Z,5.85
2022-08-28T13:57:14.579Z,5.45
2022-08-28T13:59:41.571Z,5.68
2022-08-28T14:02:32.494Z,6.00
2022-08-28T14:04:59.412Z,6.05
2022-08-28T14:07:26.195Z,5.07
2022-08-28T14:09:56.281Z,5.70
2022-08-28T14:12:31.457Z,5.72
2022-08-28T14:15:00.266Z,6.22
2022-08-28T14:17:26.867Z,6.22
2022-08-28T14:19:55.946Z,6.53
2022-08-28T14:22:25.099Z,6.22
2022-08-28T14:24:52.145Z,6.90
2022-08-28T14:27:20.955Z,6.28
2022-08-28T14:29:49.088Z,7.00
2022-08-28T14:32:16.043Z,6.95
2022-08-28T14:34:43.587Z,6.80
2022-08-28T14:37:12.799Z,6.20
2022-08-28T14:39:40.953Z,6.90
2022-08-28T14:42:11.808Z,6.97
2022-08-28T14:44:40.029Z,6.20
2022-08-28T14:47:06.664Z,6.65
2022-08-28T14:49:33.268Z,7.85
2022-08-28T14:52:00.195Z,9.63
2022-08-28T14:54:26.904Z,10.25
2022-08-28T14:56:54.716Z,12.10
2022-08-28T14:59:24.692Z,13.50
2022-08-28T15:01:52.656Z,16.35
2022-08-28T15:04:22.844Z,15.93
2022-08-28T15:06:51.305Z,18.55
2022-08-28T15:09:19.236Z,18.20
2022-08-28T15:11:46.370Z,20.45
2022-08-28T15:14:13.359Z,21.73
2022-08-28T15:16:43.554Z,21.23
2022-08-28T15:19:12.389Z,21.83
2022-08-28T15:21:45.755Z,21.55
2022-08-28T15:24:18.040Z,21.38
2022-08-28T15:26:44.995Z,24.10
2022-08-28T15:29:12.071Z,22.77
2022-08-28T15:31:42.570Z,22.95
2022-08-28T15:34:18.062Z,20.58
2022-08-28T15:36:45.875Z,20.05
2022-08-28T15:39:40.241Z,19.27
2022-08-28T15:42:08.258Z,20.08
2022-08-28T15:44:34.837Z,19.67
2022-08-28T15:47:03.110Z,21.42
2022-08-28T15:49:32.329Z,22.05
2022-08-28T15:52:10.646Z,22.85
2022-08-28T15:54:37.562Z,24.73
2022-08-28T15:57:04.498Z,26.55
2022-08-28T15:59:48.315Z,30.98
2022-08-28T16:02:16.200Z,33.33
2022-08-28T16:04:42.950Z,34.80
2022-08-28T16:07:09.576Z,34.75
2022-08-28T16:09:36.202Z,36.47
2022-08-28T16:12:03.009Z,35.75
2022-08-28T16:14:32.728Z,31.05
2022-08-28T16:16:59.442Z,32.90
2022-08-28T16:19:32.736Z,30.65
2022-08-28T16:22:00.357Z,28.85
2022-08-28T16:24:26.967Z,27.70
2022-08-28T16:26:53.616Z,28.17
2022-08-28T16:29:20.184Z,29.98
2022-08-28T16:31:48.741Z,28.98
2022-08-28T16:34:15.959Z,26.88
2022-08-28T16:36:48.056Z,32.50
2022-08-28T16:39:14.665Z,29.65
2022-08-28T16:41:42.183Z,31.23
2022-08-28T16:44:08.954Z,31.13
2022-08-28T16:46:35.654Z,32.95
2022-08-28T16:49:02.557Z,32.38
2022-08-28T16:51:29.735Z,35.22
2022-08-28T16:53:56.866Z,32.80
2022-08-28T16:56:24.971Z,32.60
2022-08-28T16:58:53.306Z,33.60
2022-08-28T17:01:24.101Z,35.67
2022-08-28T17:03:54.570Z,39.97
2022-08-28T17:06:25.338Z,38.92
2022-08-28T17:08:56.704Z,37.75
2022-08-28T17:11:26.234Z,39.33
2022-08-28T17:13:53.263Z,42.53
2022-08-28T17:16:20.806Z,44.90
2022-08-28T17:18:52.201Z,42.90
2022-08-28T17:21:38.454Z,43.03
2022-08-28T17:24:05.481Z,40.80
2022-08-28T17:26:32.338Z,41.85
2022-08-28T17:28:58.951Z,43.40
2022-08-28T17:31:25.682Z,38.88
2022-08-28T17:33:52.326Z,39.85
2022-08-28T17:36:32.649Z,40.78
2022-08-28T17:39:05.333Z,39.15
2022-08-28T17:41:33.387Z,42.80
2022-08-28T17:44:01.168Z,38.15
2022-08-28T17:46:27.955Z,38.20
2022-08-28T17:48:56.048Z,41.40
2022-08-28T17:51:33.161Z,38.10
2022-08-28T17:54:15.293Z,37.80
2022-08-28T17:56:42.436Z,38.05
2022-08-28T17:59:10.419Z,39.40
2022-08-28T18:01:37.919Z,38.53
2022-08-28T18:04:05.395Z,40.42
2022-08-28T18:06:34.987Z,40.08
2022-08-28T18:09:01.770Z,39.03
2022-08-28T18:11:28.979Z,38.65
2022-08-28T18:13:55.707Z,40.05
2022-08-28T18:16:23.854Z,39.53
2022-08-28T18:18:53.572Z,38.72
2022-08-28T18:21:20.612Z,37.17
2022-08-28T18:23:47.576Z,34.80
2022-08-28T18:26:14.226Z,36.67
2022-08-28T18:28:41.246Z,34.97
2022-08-28T18:31:08.295Z,33.00
2022-08-28T18:33:36.346Z,34.38
2022-08-28T18:36:06.636Z,32.67
2022-08-28T18:38:35.609Z,33.88
2022-08-28T18:41:03.700Z,33.00
2022-08-28T18:43:30.637Z,29.55
2022-08-28T18:45:58.611Z,31.63
2022-08-28T18:48:25.261Z,31.10
2022-08-28T18:50:51.919Z,30.17
2022-08-28T18:53:24.421Z,28.73
2022-08-28T18:55:52.803Z,28.40
2022-08-28T18:58:21.116Z,27.50
2022-08-28T19:00:50.436Z,28.55
2022-08-28T19:03:17.552Z,27.10
2022-08-28T19:05:44.433Z,26.63
2022-08-28T19:08:11.574Z,27.15
2022-08-28T19:10:38.575Z,26.50
2022-08-28T19:13:06.105Z,25.70
2022-08-28T19:15:34.246Z,24.88
2022-08-28T19:18:01.503Z,26.70
2022-08-28T19:20:29.830Z,26.60
2022-08-28T19:22:57.828Z,24.75
2022-08-28T19:25:28.374Z,25.08
2022-08-28T19:27:59.157Z,25.27
2022-08-28T19:30:29.965Z,24.90
2022-08-28T19:32:57.030Z,25.02
2022-08-28T19:35:24.728Z,24.30
2022-08-28T19:37:55.361Z,24.88
2022-08-28T19:40:22.516Z,22.40
2022-08-28T19:42:52.741Z,21.40
2022-08-28T19:45:20.205Z,22.15
2022-08-28T19:47:47.236Z,20.05
2022-08-28T19:50:15.824Z,20.75
2022-08-28T19:52:44.814Z,20.50
2022-08-28T19:55:18.419Z,20.60
2022-08-28T19:57:46.914Z,20.77
2022-08-28T20:00:17.676Z,21.70
2022-08-28T20:02:45.081Z,20.48
2022-08-28T20:05:12.076Z,19.80
2022-08-28T20:07:38.669Z,20.50
2022-08-28T20:10:06.490Z,22.42
2022-08-28T20:12:33.738Z,22.42
2022-08-28T20:15:03.618Z,23.25
2022-08-28T20:17:30.656Z,23.15
2022-08-28T20:20:02.476Z,22.23
2022-08-28T20:22:31.786Z,21.90
2022-08-28T20:24:59.128Z,21.77
2022-08-28T20:27:25.804Z,21.45
2022-08-28T20:29:52.453Z,22.85
2022-08-28T20:32:19.567Z,22.98
2022-08-28T20:34:46.162Z,22.95
2022-08-28T20:37:12.822Z,22.02
2022-08-28T20:39:41.803Z,23.67
2022-08-28T20:42:10.250Z,20.95
2022-08-28T20:44:36.896Z,24.30
2022-08-28T20:47:04.330Z,23.33
2022-08-28T20:49:31.464Z,21.92
2022-08-28T20:52:00.761Z,22.10
2022-08-28T20:54:29.487Z,21.73
2022-08-28T20:56:58.261Z,22.45
2022-08-28T20:59:28.899Z,22.55
2022-08-28T21:02:04.181Z,23.75
2022-08-28T21:04:33.765Z,21.02
2022-08-28T21:07:00.401Z,23.83
2022-08-28T21:09:39.538Z,23.27
2022-08-28T21:12:13.643Z,21.73
2022-08-28T21:14:40.389Z,24.02
2022-08-28T21:17:07.610Z,23.30
2022-08-28T21:19:37.266Z,21.92
2022-08-28T21:22:07.187Z,22.92
2022-08-28T21:24:33.922Z,22.45
2022-08-28T21:27:00.562Z,21.83
2022-08-28T21:29:27.394Z,21.90
2022-08-28T21:31:54.484Z,20.42
2022-08-28T21:34:21.942Z,20.70
2022-08-28T21:36:50.699Z,22.35
2022-08-28T21:39:20.611Z,22.80
2022-08-28T21:41:48.913Z,21.52
2022-08-28T21:44:15.893Z,21.63
2022-08-28T21:46:42.566Z,23.02
2022-08-28T21:49:09.223Z,22.75
2022-08-28T21:51:36.057Z,19.40
2022-08-28T21:54:02.633Z,18.50
2022-08-28T21:56:30.287Z,20.67
2022-08-28T21:58:57.342Z,18.70
2022-08-28T22:01:25.832Z,20.50
2022-08-28T22:03:53.805Z,17.60
2022-08-28T22:06:22.925Z,18.08
2022-08-28T22:08:50.683Z,17.80
2022-08-28T22:11:24.742Z,19.88
2022-08-28T22:13:52.343Z,19.10
2022-08-28T22:16:19.273Z,18.42
2022-08-28T22:18:45.967Z,18.08
2022-08-28T22:21:33.911Z,19.80
2022-08-28T22:24:00.654Z,18.38
2022-08-28T22:26:27.665Z,18.90
2022-08-28T22:28:55.878Z,19.80
2022-08-28T22:31:22.482Z,19.23
2022-08-28T22:33:49.105Z,21.02
2022-08-28T22:36:17.391Z,21.73
2022-08-28T22:38:47.040Z,20.15
2022-08-28T22:41:20.651Z,18.90
2022-08-28T22:43:51.346Z,21.38
2022-08-28T22:46:20.442Z,22.58
2022-08-28T22:48:47.676Z,24.83
2022-08-28T22:51:18.416Z,22.05
2022-08-28T22:53:45.813Z,21.95
2022-08-28T22:56:13.814Z,22.88
2022-08-28T22:58:40.843Z,22.45
2022-08-28T23:01:15.211Z,23.45
2022-08-28T23:03:42.392Z,21.67
2022-08-28T23:06:09.401Z,22.73
2022-08-28T23:08:36.289Z,23.38
2022-08-28T23:11:03.634Z,22.45
2022-08-28T23:13:31.018Z,25.00
2022-08-28T23:15:57.851Z,23.33
2022-08-28T23:18:24.713Z,24.17
2022-08-28T23:20:52.471Z,19.48
2022-08-28T23:23:19.653Z,22.38
2022-08-28T23:25:46.504Z,19.98
2022-08-28T23:28:14.125Z,20.75
2022-08-28T23:30:43.957Z,21.60
2022-08-28T23:33:18.561Z,20.63
2022-08-28T23:35:49.829Z,20.23
2022-08-28T23:38:16.470Z,22.92
2022-08-28T23:40:43.149Z,20.90
2022-08-28T23:43:10.276Z,21.08
2022-08-28T23:45:40.320Z,21.33
2022-08-28T23:48:07.563Z,22.38
2022-08-28T23:50:35.041Z,21.88
2022-08-28T23:53:03.981Z,19.02
2022-08-28T23:55:30.978Z,19.38
2022-08-28T23:58:00.355Z,20.77
